createdAt,value
2023-02-02T00:00:53.544Z,88609.00
2023-02-02T00:01:53.486Z,88607.00
2023-02-02T00:02:53.461Z,88607.00
2023-02-02T00:03:53.444Z,88607.00
2023-02-02T00:04:53.337Z,88613.00
2023-02-02T00:05:53.291Z,88613.00
2023-02-02T00:06:53.250Z,88617.00
2023-02-02T00:07:53.200Z,88611.00
2023-02-02T00:08:53.168Z,88607.00
2023-02-02T00:09:53.112Z,88605.00
2023-02-02T00:10:53.049Z,88601.00
2023-02-02T00:11:52.991Z,88599.00
2023-02-02T00:12:52.959Z,88597.00
2023-02-02T00:13:52.895Z,88599.00
2023-02-02T00:14:52.851Z,88599.00
2023-02-02T03:20:43.248Z,88576.00
2023-02-02T03:21:43.217Z,88572.00
2023-02-02T03:22:43.155Z,88568.00
2023-02-02T03:23:43.107Z,88560.00
2023-02-02T03:24:43.060Z,88554.00
2023-02-02T03:25:43.007Z,88554.00
2023-02-02T03:26:42.998Z,88564.00
2023-02-02T03:27:42.933Z,88572.00
2023-02-02T03:28:42.886Z,88576.00
2023-02-02T03:29:42.832Z,88572.00
2023-02-02T04:10:40.888Z,88576.00
2023-02-02T04:28:40.062Z,88582.00
2023-02-02T04:29:40.026Z,88582.00
2023-02-02T04:30:40.024Z,88580.00
2023-02-02T04:31:39.933Z,88582.00
2023-02-02T04:32:39.896Z,88582.00
2023-02-02T04:33:39.837Z,88586.00
2023-02-02T04:34:39.796Z,88584.00
2023-02-02T04:35:39.760Z,88574.00
2023-02-02T04:36:39.727Z,88572.00
2023-02-02T04:37:39.675Z,88574.00
2023-02-02T04:38:39.647Z,88578.00
2023-02-02T04:39:39.626Z,88580.00
2023-02-02T04:40:39.578Z,88574.00
2023-02-02T04:41:39.497Z,88572.00
2023-02-02T04:42:39.448Z,88568.00
2023-02-02T04:43:39.414Z,88568.00
2023-02-02T04:44:39.366Z,88572.00
2023-02-02T04:45:39.365Z,88576.00
2023-02-02T04:46:39.287Z,88576.00
2023-02-02T04:47:39.236Z,88578.00
2023-02-02T04:48:39.179Z,88578.00
2023-02-02T04:49:39.143Z,88582.00
2023-02-02T04:50:39.109Z,88584.00
2023-02-02T04:51:39.063Z,88586.00
2023-02-02T04:52:39.034Z,88587.00
2023-02-02T04:53:38.967Z,88586.00
2023-02-02T04:54:38.911Z,88589.00
2023-02-02T04:55:38.943Z,88587.00
2023-02-02T04:56:38.821Z,88591.00
2023-02-02T04:57:38.804Z,88591.00
2023-02-02T04:58:38.727Z,88597.00
2023-02-02T04:59:41.068Z,88599.00
2023-02-02T05:00:38.625Z,88599.00
2023-02-02T05:01:38.588Z,88597.00
2023-02-02T05:02:38.541Z,88607.00
2023-02-02T05:03:38.479Z,88607.00
2023-02-02T05:04:38.464Z,88609.00
2023-02-02T05:05:38.387Z,88611.00
2023-02-02T05:06:38.324Z,88613.00
2023-02-02T05:07:38.272Z,88607.00
2023-02-02T05:08:38.217Z,88607.00
2023-02-02T05:09:38.165Z,88611.00
2023-02-02T05:10:38.124Z,88613.00
2023-02-02T05:11:38.087Z,88613.00
2023-02-02T05:12:38.033Z,88615.00
2023-02-02T05:13:38.020Z,88621.00
2023-02-02T05:14:37.919Z,88623.00
2023-02-02T05:15:37.877Z,88621.00
2023-02-02T05:16:37.885Z,88617.00
2023-02-02T05:17:37.783Z,88619.00
2023-02-02T05:18:37.722Z,88625.00
2023-02-02T05:19:37.685Z,88629.00
2023-02-02T05:20:37.628Z,88623.00
2023-02-02T05:21:37.577Z,88621.00
2023-02-02T05:22:37.524Z,88629.00
2023-02-02T05:23:37.486Z,88625.00
2023-02-02T06:05:35.399Z,88609.00
2023-02-02T06:06:35.341Z,88609.00
2023-02-02T06:07:35.297Z,88607.00
2023-02-02T06:08:35.259Z,88605.00
2023-02-02T06:09:35.195Z,88597.00
2023-02-02T06:10:35.138Z,88595.00
2023-02-02T06:11:35.119Z,88591.00
2023-02-02T06:12:35.051Z,88593.00
2023-02-02T06:13:34.983Z,88595.00
2023-02-02T06:14:34.935Z,88593.00
2023-02-02T06:15:34.947Z,88593.00
2023-02-02T06:16:34.839Z,88591.00
2023-02-02T06:17:34.784Z,88591.00
2023-02-02T06:18:34.739Z,88595.00
2023-02-02T06:19:34.722Z,88603.00
2023-02-02T06:20:34.646Z,88601.00
2023-02-02T06:21:34.605Z,88595.00
2023-02-02T06:22:34.532Z,88597.00
2023-02-02T06:23:34.501Z,88599.00
2023-02-02T06:24:34.440Z,88603.00
2023-02-02T06:25:34.435Z,88603.00
2023-02-02T06:26:34.406Z,88605.00
2023-02-02T06:27:34.292Z,88603.00
2023-02-02T06:28:34.238Z,88599.00
2023-02-02T06:29:34.194Z,88599.00
2023-02-02T06:30:34.169Z,88597.00
2023-02-02T06:31:34.348Z,88593.00
2023-02-02T06:32:34.040Z,88589.00
2023-02-02T06:33:33.979Z,88595.00
2023-02-02T06:34:33.946Z,88601.00
2023-02-02T06:35:33.877Z,88613.00
2023-02-02T06:36:33.821Z,88607.00
2023-02-02T06:37:33.769Z,88603.00
2023-02-02T06:38:33.747Z,88599.00
2023-02-02T06:39:33.673Z,88597.00
2023-02-02T06:40:33.633Z,88595.00
2023-02-02T06:41:33.593Z,88599.00
2023-02-02T06:42:33.522Z,88605.00
2023-02-02T06:43:33.486Z,88607.00
2023-02-02T06:44:33.443Z,88603.00
2023-02-02T06:45:33.400Z,88603.00
2023-02-02T06:46:33.410Z,88607.00
2023-02-02T06:47:33.529Z,88607.00
2023-02-02T06:48:33.247Z,88605.00
2023-02-02T06:49:33.201Z,88603.00
2023-02-02T06:50:33.159Z,88607.00
2023-02-02T06:51:33.121Z,88607.00
2023-02-02T06:52:33.028Z,88609.00
2023-02-02T06:53:32.982Z,88609.00
2023-02-02T06:54:32.945Z,88609.00
2023-02-02T06:55:32.897Z,88611.00
2023-02-02T07:11:33.395Z,88619.00
2023-02-02T07:47:47.145Z,88642.00
2023-02-02T09:36:26.387Z,88721.00
2023-02-02T09:38:26.273Z,88733.00
2023-02-02T09:39:26.245Z,88731.00
2023-02-02T09:40:26.177Z,88735.00
2023-02-02T09:41:26.159Z,88742.00
2023-02-02T09:42:26.075Z,88742.00
2023-02-02T09:43:26.029Z,88742.00
2023-02-02T09:44:25.991Z,88733.00
2023-02-02T09:45:26.323Z,88729.00
2023-02-02T09:46:25.980Z,88735.00
2023-02-02T09:47:25.817Z,88748.00
2023-02-02T09:48:25.758Z,88748.00
2023-02-02T09:49:25.713Z,88746.00
2023-02-02T09:50:25.665Z,88746.00
2023-02-02T09:51:25.614Z,88744.00
2023-02-02T09:52:25.544Z,88742.00
2023-02-02T09:53:25.492Z,88742.00
2023-02-02T09:54:25.444Z,88748.00
2023-02-02T09:55:25.710Z,88756.00
2023-02-02T09:56:25.352Z,88756.00
2023-02-02T09:57:25.285Z,88754.00
2023-02-02T09:58:25.256Z,88750.00
2023-02-02T09:59:25.196Z,88754.00
2023-02-02T10:00:25.143Z,88757.00
2023-02-02T10:01:25.134Z,88763.00
2023-02-02T10:02:25.024Z,88767.00
2023-02-02T10:03:24.959Z,88763.00
2023-02-02T10:04:24.917Z,88757.00
2023-02-02T10:05:25.080Z,88754.00
2023-02-02T10:06:24.823Z,88756.00
2023-02-02T10:07:24.795Z,88761.00
2023-02-02T10:08:34.376Z,88765.00
2023-02-02T10:09:25.673Z,88771.00
2023-02-02T10:10:24.624Z,88773.00
2023-02-02T10:11:24.651Z,88773.00
2023-02-02T10:12:24.531Z,88773.00
2023-02-02T10:13:24.455Z,88769.00
2023-02-02T10:14:24.455Z,88771.00
2023-02-02T10:15:24.878Z,88773.00
2023-02-02T10:16:24.477Z,88769.00
2023-02-02T10:17:24.263Z,88767.00
2023-02-02T10:18:24.193Z,88771.00
2023-02-02T10:19:24.153Z,88775.00
2023-02-02T10:20:24.562Z,88777.00
2023-02-02T10:21:24.053Z,88773.00
2023-02-02T10:22:23.995Z,88769.00
2023-02-02T10:23:23.987Z,88769.00
2023-02-02T10:24:23.896Z,88771.00
2023-02-02T10:25:23.823Z,88777.00
2023-02-02T10:26:23.946Z,88775.00
2023-02-02T10:27:23.719Z,88771.00
2023-02-02T10:28:23.669Z,88773.00
2023-02-02T10:29:23.603Z,88765.00
2023-02-02T10:30:24.065Z,88757.00
2023-02-02T10:31:23.627Z,88756.00
2023-02-02T10:32:23.471Z,88757.00
2023-02-02T10:33:24.192Z,88759.00
2023-02-02T10:34:24.194Z,88756.00
2023-02-02T10:35:23.250Z,88757.00
2023-02-02T10:36:23.198Z,88756.00
2023-02-02T10:37:23.122Z,88759.00
2023-02-02T10:38:23.089Z,88759.00
2023-02-02T10:39:22.999Z,88757.00
2023-02-02T10:40:23.015Z,88756.00
2023-02-02T10:41:22.879Z,88759.00
2023-02-02T12:28:17.599Z,88703.00
2023-02-02T12:29:17.547Z,88705.00
2023-02-02T12:30:17.479Z,88703.00
2023-02-02T12:31:17.501Z,88709.00
2023-02-02T12:32:17.379Z,88709.00
2023-02-02T12:33:17.333Z,88709.00
2023-02-02T12:34:17.306Z,88711.00
2023-02-02T12:35:17.240Z,88709.00
2023-02-02T12:36:17.222Z,88705.00
2023-02-02T12:37:17.157Z,88705.00
2023-02-02T12:38:17.069Z,88711.00
2023-02-02T12:39:17.016Z,88711.00
2023-02-02T12:40:16.981Z,88715.00
2023-02-02T12:41:16.916Z,88711.00
2023-02-02T12:42:16.871Z,88713.00
2023-02-02T12:43:16.806Z,88711.00
2023-02-02T12:44:16.756Z,88721.00
2023-02-02T12:45:16.713Z,88723.00
2023-02-02T12:46:16.823Z,88715.00
2023-02-02T12:47:16.607Z,88705.00
2023-02-02T12:48:16.567Z,88705.00
2023-02-02T12:49:16.507Z,88709.00
2023-02-02T12:50:16.452Z,88719.00
2023-02-02T12:51:16.402Z,88717.00
2023-02-02T12:52:16.359Z,88707.00
2023-02-02T12:53:16.276Z,88709.00
2023-02-02T12:54:34.380Z,88717.00
2023-02-02T12:55:17.187Z,88723.00
2023-02-02T12:56:16.165Z,88717.00
2023-02-02T12:57:16.070Z,88713.00
2023-02-02T12:58:16.006Z,88711.00
2023-02-02T12:59:15.963Z,88715.00
2023-02-02T13:00:15.920Z,88719.00
2023-02-02T13:01:15.918Z,88723.00
2023-02-02T13:02:15.896Z,88719.00
2023-02-02T13:03:15.746Z,88717.00
2023-02-02T13:04:15.701Z,88713.00
2023-02-02T13:05:15.653Z,88723.00
2023-02-02T13:06:15.624Z,88727.00
2023-02-02T13:07:15.541Z,88725.00
2023-02-02T13:08:15.502Z,88721.00
2023-02-02T13:09:15.447Z,88721.00
2023-02-02T13:10:15.395Z,88725.00
2023-02-02T13:11:15.340Z,88725.00
2023-02-02T13:12:15.287Z,88721.00
2023-02-02T13:13:15.220Z,88721.00
2023-02-02T13:14:15.168Z,88721.00
2023-02-02T13:15:15.129Z,88721.00
2023-02-02T13:16:15.090Z,88715.00
2023-02-02T13:17:15.046Z,88715.00
2023-02-02T13:18:14.979Z,88717.00
2023-02-02T13:19:14.912Z,88711.00
2023-02-02T13:20:14.851Z,88709.00
2023-02-02T13:21:14.802Z,88707.00
2023-02-02T13:22:14.741Z,88703.00
2023-02-02T13:23:14.687Z,88707.00
2023-02-02T13:24:14.625Z,88711.00
2023-02-02T13:25:14.573Z,88715.00
2023-02-02T13:26:14.542Z,88715.00
2023-02-02T13:27:14.479Z,88705.00
2023-02-02T13:28:14.418Z,88701.00
2023-02-02T13:29:14.358Z,88707.00
2023-02-02T13:30:14.314Z,88717.00
2023-02-02T13:31:14.505Z,88727.00
2023-02-02T13:32:14.222Z,88719.00
2023-02-02T13:33:14.159Z,88719.00
2023-02-02T13:34:14.112Z,88719.00
2023-02-02T13:35:14.044Z,88719.00
2023-02-02T13:36:13.996Z,88729.00
2023-02-02T13:37:16.794Z,88727.00
2023-02-02T13:38:13.888Z,88725.00
2023-02-02T13:39:13.844Z,88731.00
2023-02-02T13:40:13.798Z,88733.00
2023-02-02T13:41:13.739Z,88742.00
2023-02-02T13:42:13.684Z,88744.00
2023-02-02T13:43:13.627Z,88735.00
2023-02-02T13:44:13.586Z,88733.00
2023-02-02T13:45:13.530Z,88742.00
2023-02-02T13:46:13.491Z,88748.00
2023-02-02T13:47:13.442Z,88754.00
2023-02-02T13:48:13.427Z,88748.00
2023-02-02T13:49:13.479Z,88744.00
2023-02-02T13:50:13.280Z,88742.00
2023-02-02T13:51:13.235Z,88746.00
2023-02-02T13:52:13.168Z,88754.00
2023-02-02T13:53:13.115Z,88757.00
2023-02-02T13:54:13.052Z,88754.00
2023-02-02T13:55:13.016Z,88757.00
2023-02-02T13:56:12.991Z,88763.00
2023-02-02T13:57:12.903Z,88767.00
2023-02-02T13:58:12.850Z,88763.00
2023-02-02T13:59:12.798Z,88757.00
2023-02-02T14:00:12.756Z,88759.00
2023-02-02T14:01:12.720Z,88765.00
2023-02-02T14:02:12.695Z,88771.00
2023-02-02T14:03:12.611Z,88771.00
2023-02-02T14:04:12.552Z,88765.00
2023-02-02T14:05:12.500Z,88759.00
2023-02-02T14:06:12.498Z,88767.00
2023-02-02T14:07:12.406Z,88777.00
2023-02-02T14:08:12.350Z,88781.00
2023-02-02T14:09:12.299Z,88775.00
2023-02-02T14:10:12.270Z,88767.00
2023-02-02T14:11:12.189Z,88769.00
2023-02-02T14:12:12.167Z,88777.00
2023-02-02T14:13:12.089Z,88779.00
2023-02-02T14:14:12.042Z,88769.00
2023-02-02T14:15:11.991Z,88763.00
2023-02-02T14:16:12.039Z,88771.00
2023-02-02T14:17:11.911Z,88785.00
2023-02-02T14:18:11.841Z,88779.00
2023-02-02T14:19:11.792Z,88775.00
2023-02-02T14:20:11.747Z,88773.00
2023-02-02T14:21:11.718Z,88775.00
2023-02-02T14:22:11.646Z,88779.00
2023-02-02T14:23:11.588Z,88781.00
2023-02-02T14:24:11.534Z,88785.00
2023-02-02T14:25:11.481Z,88783.00
2023-02-02T14:26:11.625Z,88779.00
2023-02-02T14:27:11.497Z,88779.00
2023-02-02T14:28:11.326Z,88783.00
2023-02-02T14:29:11.269Z,88785.00
2023-02-02T14:30:11.225Z,88791.00
2023-02-02T14:31:11.246Z,88793.00
2023-02-02T14:32:11.147Z,88787.00
2023-02-02T14:33:11.050Z,88791.00
2023-02-02T14:34:11.014Z,88797.00
2023-02-02T14:35:10.942Z,88801.00
2023-02-02T14:36:10.931Z,88797.00
2023-02-02T14:37:10.872Z,88795.00
2023-02-02T15:10:09.172Z,88801.00
2023-02-02T15:12:09.074Z,88806.00
2023-02-02T15:13:09.032Z,88804.00
2023-02-02T15:14:08.978Z,88806.00
2023-02-02T15:15:08.944Z,88806.00
2023-02-02T15:16:08.917Z,88812.00
2023-02-02T15:17:08.821Z,88810.00
2023-02-02T15:18:08.790Z,88806.00
2023-02-02T15:19:08.736Z,88806.00
2023-02-02T15:20:08.716Z,88810.00
2023-02-02T15:21:08.650Z,88812.00
2023-02-02T15:22:08.604Z,88812.00
2023-02-02T15:23:08.545Z,88816.00
2023-02-02T15:24:08.525Z,88812.00
2023-02-02T15:25:08.453Z,88806.00
2023-02-02T15:26:08.484Z,88803.00
2023-02-02T15:27:08.379Z,88810.00
2023-02-02T15:28:08.360Z,88812.00
2023-02-02T15:29:08.361Z,88816.00
2023-02-02T16:54:04.093Z,88908.00
2023-02-02T16:55:04.026Z,88905.00
2023-02-02T16:56:03.975Z,88906.00
2023-02-02T16:57:03.915Z,88910.00
2023-02-02T16:58:03.862Z,88912.00
2023-02-02T16:59:03.819Z,88914.00
2023-02-02T17:00:03.782Z,88914.00
2023-02-02T17:01:14.987Z,88912.00
2023-02-02T17:03:03.581Z,88906.00
2023-02-02T17:04:03.530Z,88910.00
2023-02-02T17:05:03.468Z,88916.00
2023-02-02T17:06:03.417Z,88920.00
2023-02-02T17:07:03.356Z,88920.00
2023-02-02T17:08:03.315Z,88920.00
2023-02-02T17:09:03.243Z,88922.00
2023-02-02T17:10:03.184Z,88926.00
2023-02-02T17:11:03.134Z,88926.00
2023-02-02T17:12:03.102Z,88926.00
2023-02-02T17:13:03.014Z,88930.00
2023-02-02T17:14:02.970Z,88930.00
2023-02-02T17:15:02.935Z,88932.00
2023-02-02T17:16:02.868Z,88934.00
2023-02-02T17:18:02.759Z,88938.00
2023-02-02T17:19:02.752Z,88944.00
2023-02-02T17:20:02.709Z,88942.00
2023-02-02T17:21:02.589Z,88940.00
2023-02-02T17:22:02.549Z,88940.00
2023-02-02T17:23:02.481Z,88938.00
2023-02-02T17:24:02.427Z,88944.00
2023-02-02T17:25:02.410Z,88946.00
2023-02-02T17:26:02.332Z,88948.00
2023-02-02T17:27:02.292Z,88948.00
2023-02-02T17:28:02.224Z,88946.00
2023-02-02T17:29:02.186Z,88946.00
2023-02-02T17:30:02.152Z,88948.00
2023-02-02T17:31:02.161Z,88948.00
2023-02-02T17:32:02.023Z,88944.00
2023-02-02T17:33:01.966Z,88946.00
2023-02-02T17:34:01.908Z,88954.00
2023-02-02T17:35:01.848Z,88956.00
2023-02-02T17:36:01.807Z,88956.00
2023-02-02T17:37:01.745Z,88956.00
2023-02-02T17:38:01.690Z,88960.00
2023-02-02T17:39:01.636Z,88960.00
2023-02-02T17:40:01.634Z,88963.00
2023-02-02T17:41:01.902Z,88963.00
2023-02-02T17:42:01.520Z,88961.00
2023-02-02T17:43:01.436Z,88963.00
2023-02-02T17:44:01.387Z,88971.00
2023-02-02T17:45:01.324Z,88973.00
2023-02-02T17:46:01.373Z,88969.00
2023-02-02T17:47:01.229Z,88965.00
2023-02-02T17:48:01.180Z,88969.00
2023-02-02T17:49:01.139Z,88967.00
2023-02-02T17:50:01.080Z,88967.00
2023-02-02T17:51:01.023Z,88969.00
2023-02-02T17:52:00.968Z,88969.00
2023-02-02T17:53:00.931Z,88969.00
2023-02-02T17:54:00.864Z,88973.00
2023-02-02T18:07:00.200Z,88975.00
2023-02-02T18:08:00.176Z,88973.00
2023-02-02T18:09:00.184Z,88975.00
2023-02-02T18:10:00.160Z,88975.00
2023-02-02T18:10:59.996Z,88977.00
2023-02-02T18:12:00.048Z,88977.00
2023-02-02T18:12:59.884Z,88979.00
2023-02-02T18:13:59.835Z,88981.00
2023-02-02T18:14:59.779Z,88985.00
2023-02-02T18:16:00.085Z,88987.00
2023-02-02T18:16:59.696Z,88989.00
2023-02-02T18:17:59.650Z,88989.00
2023-02-02T18:18:59.597Z,88998.00
2023-02-02T18:19:59.546Z,89000.00
2023-02-02T18:20:59.515Z,89004.00
2023-02-02T18:21:59.456Z,89004.00
2023-02-02T18:22:59.416Z,89006.00
2023-02-02T18:23:59.352Z,89006.00
2023-02-02T18:24:59.302Z,89004.00
2023-02-02T18:25:59.234Z,89004.00
2023-02-02T18:26:59.224Z,89006.00
2023-02-02T18:27:59.121Z,89008.00
2023-02-02T18:28:59.078Z,89012.00
2023-02-02T18:29:59.027Z,89010.00
2023-02-02T18:30:59.068Z,89010.00
2023-02-02T18:31:58.990Z,89008.00
2023-02-02T18:32:58.858Z,89006.00
2023-02-02T18:33:58.798Z,89006.00
2023-02-02T18:34:58.748Z,89008.00
2023-02-02T18:35:58.701Z,89012.00
2023-02-02T18:36:58.647Z,89012.00
2023-02-02T18:37:58.633Z,89014.00
2023-02-02T18:38:58.533Z,89018.00
2023-02-02T18:39:58.494Z,89020.00
2023-02-02T18:40:58.436Z,89018.00
2023-02-02T18:41:58.393Z,89016.00
2023-02-02T18:42:58.340Z,89018.00
2023-02-02T18:43:58.288Z,89020.00
2023-02-02T18:44:58.231Z,89021.00
2023-02-02T18:45:58.194Z,89023.00
2023-02-02T18:46:58.165Z,89020.00
2023-02-02T18:47:58.086Z,89018.00
2023-02-02T18:48:58.021Z,89020.00
2023-02-02T18:49:57.985Z,89020.00
2023-02-02T18:50:57.920Z,89021.00
2023-02-02T18:51:57.893Z,89023.00
2023-02-02T18:52:57.829Z,89023.00
2023-02-02T18:53:57.773Z,89016.00
2023-02-02T18:54:57.719Z,89016.00
2023-02-02T18:55:57.658Z,89016.00
2023-02-02T18:56:57.607Z,89016.00
2023-02-02T18:57:57.558Z,89016.00
2023-02-02T18:58:57.493Z,89016.00
2023-02-02T18:59:57.440Z,89020.00
2023-02-02T19:00:57.408Z,89020.00
2023-02-02T19:01:57.374Z,89021.00
2023-02-02T19:02:57.279Z,89023.00
2023-02-02T19:03:57.341Z,89020.00
2023-02-02T19:04:57.163Z,89020.00
2023-02-02T19:05:57.125Z,89020.00
2023-02-02T19:06:57.062Z,89020.00
2023-02-02T19:07:57.027Z,89020.00
2023-02-02T19:08:56.980Z,89021.00
2023-02-02T19:09:56.917Z,89023.00
2023-02-02T19:10:56.859Z,89025.00
2023-02-02T19:11:56.841Z,89025.00
2023-02-02T19:12:56.771Z,89025.00
2023-02-02T19:13:56.713Z,89027.00
2023-02-02T19:14:56.668Z,89025.00
2023-02-02T19:15:56.655Z,89025.00
2023-02-02T19:16:56.565Z,89025.00
2023-02-02T19:17:56.517Z,89027.00
2023-02-02T19:18:56.455Z,89029.00
2023-02-02T19:19:56.404Z,89029.00
2023-02-02T19:20:56.350Z,89029.00
2023-02-02T19:21:56.313Z,89033.00
2023-02-02T19:22:56.252Z,89033.00
2023-02-02T19:23:56.207Z,89037.00
2023-02-02T19:24:56.158Z,89041.00
2023-02-02T19:25:56.134Z,89039.00
2023-02-02T19:26:56.119Z,89039.00
2023-02-02T19:27:56.002Z,89039.00
2023-02-02T19:28:55.948Z,89043.00
2023-02-02T19:29:55.917Z,89047.00
2023-02-02T19:30:55.919Z,89051.00
2023-02-02T19:31:55.832Z,89055.00
2023-02-02T19:32:55.725Z,89055.00
2023-02-02T19:33:55.669Z,89049.00
2023-02-02T19:34:55.629Z,89053.00
2023-02-02T19:35:55.558Z,89053.00
2023-02-02T19:36:55.521Z,89051.00
2023-02-02T19:37:55.454Z,89049.00
2023-02-02T19:38:55.397Z,89047.00
2023-02-02T19:39:55.337Z,89049.00
2023-02-02T19:40:55.273Z,89053.00
2023-02-02T19:41:55.220Z,89049.00
2023-02-02T19:42:55.174Z,89053.00
2023-02-02T19:43:55.133Z,89053.00
2023-02-02T19:44:55.086Z,89053.00
2023-02-02T19:45:55.031Z,89053.00
2023-02-02T19:46:54.976Z,89053.00
2023-02-02T19:47:54.938Z,89055.00
2023-02-02T19:48:54.861Z,89051.00
2023-02-02T19:49:54.808Z,89053.00
2023-02-02T19:50:54.755Z,89053.00
2023-02-02T19:51:54.697Z,89055.00
2023-02-02T19:52:54.664Z,89057.00
2023-02-02T19:53:54.595Z,89055.00
2023-02-02T19:54:54.542Z,89055.00
2023-02-02T19:55:54.490Z,89057.00
2023-02-02T19:56:54.434Z,89057.00
2023-02-02T19:57:54.386Z,89059.00
2023-02-02T19:58:54.331Z,89065.00
2023-02-02T19:59:54.279Z,89067.00
2023-02-02T20:00:54.257Z,89067.00
2023-02-02T20:01:54.161Z,89069.00
2023-02-02T20:02:54.113Z,89067.00
2023-02-02T20:03:54.062Z,89067.00
2023-02-02T20:04:53.983Z,89071.00
2023-02-02T20:05:53.929Z,89073.00
2023-02-02T20:06:59.437Z,89073.00
2023-02-02T20:07:54.824Z,89069.00
2023-02-02T20:08:53.778Z,89071.00
2023-02-02T20:09:53.717Z,89069.00
2023-02-02T20:10:53.656Z,89071.00
2023-02-02T20:11:53.601Z,89073.00
2023-02-02T20:12:53.553Z,89075.00
2023-02-02T20:13:53.503Z,89073.00
2023-02-02T20:14:53.435Z,89075.00
2023-02-02T20:15:57.406Z,89076.00
2023-02-02T20:16:54.362Z,89073.00
2023-02-02T20:17:53.278Z,89075.00
2023-02-02T20:18:53.217Z,89082.00
2023-02-02T20:19:53.169Z,89082.00
2023-02-02T20:20:53.103Z,89080.00
2023-02-02T20:21:53.064Z,89080.00
2023-02-02T20:22:53.003Z,89082.00
2023-02-02T20:23:52.954Z,89086.00
2023-02-02T20:24:52.892Z,89092.00
2023-02-02T20:25:52.831Z,89094.00
2023-02-02T20:26:52.824Z,89096.00
2023-02-02T20:27:52.731Z,89094.00
2023-02-02T20:28:52.700Z,89098.00
2023-02-02T20:29:52.636Z,89098.00
2023-02-02T20:30:52.593Z,89102.00
2023-02-02T20:31:52.680Z,89102.00
2023-02-02T20:32:52.470Z,89102.00
2023-02-02T20:33:52.440Z,89102.00
2023-02-02T20:34:52.367Z,89102.00
2023-02-02T20:35:52.320Z,89106.00
2023-02-02T20:36:52.271Z,89106.00
2023-02-02T20:37:52.215Z,89106.00
2023-02-02T20:38:52.149Z,89106.00
2023-02-02T20:39:52.188Z,89102.00
2023-02-02T20:40:52.054Z,89104.00
2023-02-02T20:41:52.012Z,89104.00
2023-02-02T20:42:51.934Z,89100.00
2023-02-02T20:43:51.894Z,89108.00
2023-02-02T20:44:51.866Z,89118.00
2023-02-02T20:45:51.849Z,89122.00
2023-02-02T20:46:51.726Z,89124.00
2023-02-02T20:47:51.672Z,89120.00
2023-02-02T20:48:51.626Z,89114.00
2023-02-02T20:49:51.578Z,89114.00
2023-02-02T20:50:51.518Z,89116.00
2023-02-02T20:51:51.470Z,89120.00
2023-02-02T20:52:51.417Z,89120.00
2023-02-02T20:53:51.373Z,89120.00
2023-02-02T20:54:51.323Z,89122.00
2023-02-02T20:55:51.275Z,89124.00
2023-02-02T20:56:51.218Z,89128.00
2023-02-02T20:57:51.182Z,89124.00
2023-02-02T20:58:51.127Z,89122.00
2023-02-02T20:59:51.092Z,89128.00
2023-02-02T21:00:51.079Z,89130.00
2023-02-02T21:01:50.980Z,89137.00
2023-02-02T21:02:50.947Z,89135.00
2023-02-02T21:03:50.884Z,89141.00
2023-02-02T21:04:50.862Z,89147.00
2023-02-02T21:26:52.183Z,89157.00
2023-02-02T21:27:49.719Z,89159.00
2023-02-02T21:28:49.674Z,89163.00
2023-02-02T21:29:49.616Z,89161.00
2023-02-02T21:30:49.674Z,89161.00
2023-02-02T21:31:49.587Z,89161.00
2023-02-02T21:32:49.482Z,89163.00
2023-02-02T21:33:49.432Z,89163.00
2023-02-02T21:34:49.399Z,89163.00
2023-02-02T21:35:49.337Z,89163.00
2023-02-02T21:36:49.289Z,89159.00
2023-02-02T21:37:49.231Z,89161.00
2023-02-02T21:38:49.192Z,89161.00
2023-02-02T21:39:49.154Z,89163.00
2023-02-02T21:40:49.098Z,89161.00
2023-02-02T21:41:49.054Z,89161.00
2023-02-02T21:42:48.993Z,89163.00
2023-02-02T21:43:48.955Z,89167.00
2023-02-02T21:44:48.886Z,89169.00
2023-02-02T21:45:48.886Z,89173.00
2023-02-02T21:46:48.800Z,89175.00
2023-02-02T21:47:48.743Z,89175.00
2023-02-02T21:48:48.681Z,89173.00
2023-02-02T21:49:48.662Z,89173.00
2023-02-02T21:50:48.579Z,89173.00
2023-02-02T21:51:48.521Z,89175.00
2023-02-02T21:52:48.459Z,89180.00
2023-02-02T21:53:48.403Z,89182.00
2023-02-02T21:54:48.364Z,89178.00
2023-02-02T21:55:48.301Z,89178.00
2023-02-02T21:56:48.248Z,89180.00
2023-02-02T21:57:48.193Z,89186.00
2023-02-02T21:58:48.146Z,89192.00
2023-02-02T21:59:48.105Z,89198.00
2023-02-02T22:00:48.039Z,89196.00
2023-02-02T22:01:48.077Z,89198.00
2023-02-02T22:02:48.036Z,89200.00
2023-02-02T22:03:47.881Z,89208.00
2023-02-02T22:04:47.832Z,89216.00
2023-02-02T22:05:47.784Z,89220.00
2023-02-02T22:06:47.729Z,89220.00
2023-02-02T22:07:47.664Z,89214.00
2023-02-02T22:08:47.615Z,89218.00
2023-02-02T22:09:47.559Z,89218.00
2023-02-02T22:10:47.551Z,89220.00
2023-02-02T22:11:47.467Z,89218.00
2023-02-02T22:12:47.405Z,89220.00
2023-02-02T22:13:47.352Z,89220.00
2023-02-02T22:14:47.310Z,89216.00
2023-02-02T22:15:47.409Z,89214.00
2023-02-02T22:16:47.217Z,89210.00
2023-02-02T22:17:47.171Z,89210.00
2023-02-02T22:18:47.113Z,89212.00
2023-02-02T22:19:47.071Z,89216.00
2023-02-02T22:20:47.015Z,89216.00
2023-02-02T22:21:46.967Z,89216.00
2023-02-02T22:22:46.960Z,89210.00
2023-02-02T22:23:46.875Z,89204.00
2023-02-02T22:24:46.820Z,89202.00
2023-02-02T22:25:47.047Z,89202.00
2023-02-02T22:26:46.739Z,89200.00
2023-02-02T22:27:46.708Z,89200.00
2023-02-02T22:28:46.638Z,89202.00
2023-02-02T22:29:46.581Z,89202.00
2023-02-02T22:30:46.690Z,89200.00
2023-02-02T22:31:46.514Z,89196.00
2023-02-02T22:32:46.457Z,89198.00
2023-02-02T22:33:46.406Z,89200.00
2023-02-02T22:34:46.361Z,89200.00
2023-02-02T22:35:46.344Z,89198.00
2023-02-02T22:36:46.276Z,89200.00
2023-02-02T22:37:46.222Z,89202.00
2023-02-02T22:38:46.173Z,89204.00
2023-02-02T22:39:46.121Z,89212.00
2023-02-02T22:40:46.190Z,89216.00
2023-02-02T22:41:46.045Z,89226.00
2023-02-02T22:42:45.975Z,89232.00
2023-02-02T22:43:45.925Z,89232.00
2023-02-02T22:44:45.879Z,89233.00
2023-02-02T22:45:45.855Z,89230.00
2023-02-02T22:46:45.823Z,89226.00
2023-02-02T22:47:45.731Z,89220.00
2023-02-02T22:48:45.690Z,89218.00
2023-02-02T22:49:45.638Z,89216.00
2023-02-02T22:50:45.595Z,89212.00
2023-02-02T22:51:45.525Z,89214.00
2023-02-02T22:52:45.514Z,89216.00
2023-02-02T22:53:45.434Z,89214.00
2023-02-02T22:54:45.385Z,89212.00
2023-02-02T22:55:45.338Z,89212.00
2023-02-02T22:56:45.287Z,89216.00
2023-02-02T22:57:45.231Z,89216.00
2023-02-02T22:58:45.186Z,89222.00
2023-02-02T22:59:45.150Z,89222.00
2023-02-02T23:00:45.091Z,89224.00
2023-02-02T23:01:45.035Z,89228.00
2023-02-02T23:02:44.992Z,89228.00
2023-02-02T23:03:44.962Z,89228.00
2023-02-02T23:04:44.892Z,89226.00
2023-02-02T23:05:44.840Z,89228.00
2023-02-02T23:06:44.799Z,89224.00
2023-02-02T23:07:44.749Z,89224.00
2023-02-02T23:08:44.695Z,89222.00
2023-02-02T23:09:44.638Z,89222.00
2023-02-02T23:10:44.595Z,89220.00
2023-02-02T23:11:44.554Z,89220.00
2023-02-02T23:12:44.501Z,89218.00
2023-02-02T23:13:44.448Z,89214.00
2023-02-02T23:14:44.400Z,89214.00
2023-02-02T23:15:44.366Z,89216.00
2023-02-02T23:16:44.296Z,89214.00
2023-02-02T23:17:44.248Z,89218.00
2023-02-02T23:18:44.204Z,89218.00
2023-02-02T23:19:44.139Z,89216.00
2023-02-02T23:20:44.097Z,89212.00
2023-02-02T23:21:44.043Z,89210.00
2023-02-02T23:22:43.996Z,89208.00
2023-02-02T23:23:43.945Z,89208.00